Terminal Aerodrome Forecast
Issued by NWS

Home | Current Version | Previous Version | Text Only | Print | Product List | Glossary On
Versions: 1 2 3 4 5 6 7 8 9 10 11 12 13 14 15
000
FTUS43 KUNR 031120
TAFGCC
TAF
KGCC 031120Z 0312/0412 VRB05KT P6SM SCT005
      TEMPO 0312/0314 BKN005
     FM031500 06008KT P6SM SCT100
     FM032100 09013KT P6SM VCTS BKN060CB
     FM040900 14013KT 6SM -SHRA SCT008 BKN020=

USA.gov is the U.S. government's official web portal to all federal, state and local government web resources and services.